PAMC

Mc Grath Airport

Mcgrath, Alaska, USA
PAMC 221356Z 2214/2312 16005KT 5SM BR BKN004 BKN012 OVC024 FM222000 20010KT 6SM -SHRA BR SCT010 BKN025
Issued Valid From Valid To
Sep-22 @ 13:56 UTC
(an hour ago)
Sep-22 @ 14:00 UTC
(an hour ago)
Sep-23 @ 12:00 UTC
(in 21 hours)
to
to
PAMC 221356Z 2214/2312 16005KT 5SM BR BKN004 BKN012 OVC024 FM222000 20010KT 6SM -SHRA BR SCT010 BKN025
Issued Sep-22 @ 13:56 UTC
(an hour ago)
Valid From Sep-22 @ 14:00 UTC
(an hour ago)
Valid To Sep-23 @ 12:00 UTC
(in 21 hours)
-
-